Time,TemperatureF,DewpointF,PressureIn,WindDirection,WindDirectionDegrees,WindSpeedMPH,WindSpeedGustMPH,Humidity,HourlyPrecipIn,Conditions,Clouds,dailyrainin,SoftwareType,DateUTC
2013-06-25 00:55:00,81.7,72.6,30.10,ESE,103,5.0,10.0,74,0.00,,SCT150,0.00,VWS V14.00,2013-06-25 04:55:00,
2013-06-25 01:55:00,81.5,73.2,30.09,East,84,5.0,10.0,76,0.00,,SCT035,0.00,VWS V14.00,2013-06-25 05:55:00,
2013-06-25 02:55:00,80.5,73.8,30.08,ENE,61,2.0,11.0,80,0.00,,SCT025TCU,0.00,VWS V14.00,2013-06-25 06:55:00,
2013-06-25 03:55:00,80.7,74.7,30.05,East,94,7.0,10.0,82,0.00,,SCT026TCU,0.00,VWS V14.00,2013-06-25 07:55:00,
2013-06-25 04:55:00,80.9,74.5,30.05,East,97,1.0,11.0,81,0.00,,FEW026,0.00,VWS V14.00,2013-06-25 08:55:00,
2013-06-25 05:55:00,80.6,73.1,30.04,ESE,116,5.0,11.0,78,0.00,,FEW025TCU,0.00,VWS V14.00,2013-06-25 09:55:00,
2013-06-25 06:55:00,80.9,74.2,30.05,SE,130,3.0,11.0,80,0.00,,FEW024,0.00,VWS V14.00,2013-06-25 10:55:00,
2013-06-25 07:55:00,82.5,75.3,30.05,East,86,6.0,11.0,79,0.00,,SCT250,0.00,VWS V14.00,2013-06-25 11:55:00,
2013-06-25 08:55:00,83.3,75.3,30.07,East,87,0.0,12.0,77,0.00,,SCT250,0.00,VWS V14.00,2013-06-25 12:55:00,
2013-06-25 09:55:00,85.3,76.1,30.08,East,96,0.0,11.0,74,0.00,,SCT180,0.00,VWS V14.00,2013-06-25 13:55:00,
2013-06-25 10:55:00,83.5,76.3,30.09,ESE,122,5.0,12.0,79,0.00,,BKN180,0.00,VWS V14.00,2013-06-25 14:55:00,
2013-06-25 11:55:00,86.2,76.1,30.09,East,86,5.0,11.0,72,0.00,,BKN080,0.00,VWS V14.00,2013-06-25 15:55:00,
2013-06-25 12:55:00,86.8,76.7,30.08,ESE,123,0.0,12.0,72,0.00,,BKN080,0.00,VWS V14.00,2013-06-25 16:55:00,
2013-06-25 13:55:00,86.7,77.0,30.07,ESE,111,10.0,14.0,73,0.00,,BKN085,0.00,VWS V14.00,2013-06-25 17:55:00,
2013-06-25 14:55:00,87.1,77.4,30.06,ESE,109,1.0,14.0,73,0.00,,BKN230,0.00,VWS V14.00,2013-06-25 18:55:00,
2013-06-25 15:55:00,85.5,75.4,30.04,East,95,4.0,14.0,72,0.00,,BKN085,0.00,VWS V14.00,2013-06-25 19:55:00,
2013-06-25 16:55:00,86.0,76.3,30.03,ESE,121,7.0,15.0,73,0.00,,SCT250,0.00,VWS V14.00,2013-06-25 20:55:00,
2013-06-25 17:55:00,83.4,75.4,30.03,ESE,107,5.0,13.0,77,0.00,,BKN250,0.00,VWS V14.00,2013-06-25 21:55:00,
2013-06-25 18:55:00,82.3,75.9,30.03,SE,138,0.0,12.0,81,0.00,,BKN250,0.00,VWS V14.00,2013-06-25 22:55:00,
2013-06-25 19:55:00,80.8,74.1,30.04,SE,128,1.0,10.0,80,0.00,,BKN250,0.00,VWS V14.00,2013-06-25 23:55:00,
2013-06-25 20:55:00,80.6,75.0,30.03,ESE,119,0.0,10.0,83,0.00,,BKN250,0.00,VWS V14.00,2013-06-26 00:55:00,
2013-06-25 21:55:00,80.5,75.6,30.04,East,101,0.0,6.0,85,0.00,,BKN250,0.00,VWS V14.00,2013-06-26 01:55:00,
2013-06-25 22:55:00,81.4,76.1,30.05,ESE,121,0.0,7.0,84,0.00,,SCT250,0.00,VWS V14.00,2013-06-26 02:55:00,
2013-06-25 23:57:00,81.7,75.7,30.05,SE,128,0.0,9.0,82,0.00,,SCT250,0.00,VWS V14.00,2013-06-26 03:57:00,